createdAt,value
2023-03-15T00:00:10.319Z,4.06
2023-03-15T00:02:36.978Z,4.16
2023-03-15T00:05:03.773Z,4.10
2023-03-15T00:07:30.723Z,4.15
2023-03-15T00:09:57.880Z,4.13
2023-03-15T00:12:24.513Z,4.11
2023-03-15T00:14:51.555Z,4.06
2023-03-15T00:17:18.316Z,4.07
2023-03-15T00:19:44.936Z,4.05
2023-03-15T00:22:11.710Z,3.97
2023-03-15T00:24:38.360Z,3.89
2023-03-15T00:27:06.178Z,3.89
2023-03-15T00:29:33.189Z,3.83
2023-03-15T00:31:59.833Z,3.96
2023-03-15T00:34:26.584Z,3.99
2023-03-15T00:36:57.708Z,3.76
2023-03-15T00:39:26.001Z,3.72
2023-03-15T00:41:57.007Z,3.59
2023-03-15T00:44:24.742Z,3.61
2023-03-15T00:46:51.514Z,3.48
2023-03-15T00:49:18.505Z,3.51
2023-03-15T00:51:45.090Z,3.46
2023-03-15T00:54:13.999Z,3.40
2023-03-15T00:56:41.399Z,3.55
2023-03-15T00:59:08.838Z,3.51
2023-03-15T01:01:35.743Z,3.53
2023-03-15T01:04:02.372Z,3.51
2023-03-15T01:06:29.844Z,3.44
2023-03-15T01:08:57.478Z,3.40
2023-03-15T01:11:26.839Z,3.44
2023-03-15T01:13:54.751Z,3.54
2023-03-15T01:16:22.043Z,3.45
2023-03-15T01:18:48.835Z,3.40
2023-03-15T01:21:16.086Z,3.42
2023-03-15T01:23:42.916Z,3.46
2023-03-15T01:26:12.600Z,3.25
2023-03-15T01:28:39.405Z,3.05
2023-03-15T01:31:06.245Z,2.97
2023-03-15T01:33:32.974Z,3.12
2023-03-15T01:36:05.946Z,3.17
2023-03-15T01:38:33.656Z,3.01
2023-03-15T01:41:00.593Z,2.93
2023-03-15T01:43:28.876Z,2.85
2023-03-15T01:46:25.506Z,2.78
2023-03-15T01:48:59.926Z,2.76
2023-03-15T01:51:46.029Z,2.78
2023-03-15T01:54:20.009Z,2.54
2023-03-15T01:56:54.254Z,2.35
2023-03-15T01:59:25.460Z,2.45
2023-03-15T02:01:54.728Z,2.41
2023-03-15T02:04:26.121Z,2.59
2023-03-15T02:06:59.471Z,2.36
2023-03-15T02:09:32.824Z,2.29
2023-03-15T02:11:59.942Z,2.34
2023-03-15T02:14:27.019Z,2.20
2023-03-15T02:16:53.694Z,2.19
2023-03-15T02:19:35.582Z,2.39
2023-03-15T02:22:14.172Z,2.36
2023-03-15T02:24:50.400Z,2.54
2023-03-15T02:27:24.448Z,2.13
2023-03-15T02:29:51.266Z,2.07
2023-03-15T02:32:17.895Z,2.16
2023-03-15T02:34:44.584Z,2.09
2023-03-15T02:37:11.483Z,2.19
2023-03-15T02:39:38.064Z,2.27
2023-03-15T02:42:05.196Z,2.18
2023-03-15T02:44:33.063Z,2.08
2023-03-15T02:47:07.743Z,2.27
2023-03-15T02:49:38.668Z,2.24
2023-03-15T02:52:05.902Z,2.27
2023-03-15T02:54:34.482Z,2.30
2023-03-15T02:57:02.588Z,2.32
2023-03-15T02:59:29.297Z,2.31
2023-03-15T03:01:55.881Z,2.42
2023-03-15T03:04:22.844Z,2.51
2023-03-15T03:06:49.619Z,2.59
2023-03-15T03:09:16.330Z,2.63
2023-03-15T03:11:42.993Z,2.56
2023-03-15T03:14:09.604Z,2.57
2023-03-15T03:16:36.400Z,2.49
2023-03-15T03:19:03.324Z,2.53
2023-03-15T03:21:30.633Z,2.51
2023-03-15T03:23:57.380Z,2.51
2023-03-15T03:26:28.243Z,2.53
2023-03-15T03:28:55.976Z,2.56
2023-03-15T03:31:25.378Z,2.62
2023-03-15T03:33:52.737Z,2.68
2023-03-15T03:36:19.757Z,2.61
2023-03-15T03:38:47.291Z,2.68
2023-03-15T03:41:15.387Z,2.64
2023-03-15T03:43:42.331Z,2.57
2023-03-15T03:46:09.319Z,2.49
2023-03-15T03:48:36.040Z,2.57
2023-03-15T03:51:02.632Z,2.60
2023-03-15T03:53:29.249Z,2.60
2023-03-15T03:55:55.948Z,2.57
2023-03-15T03:58:22.782Z,2.71
2023-03-15T04:00:54.438Z,2.67
2023-03-15T04:03:27.406Z,2.71
2023-03-15T04:05:55.061Z,2.80
2023-03-15T04:08:22.363Z,2.80
2023-03-15T04:10:54.015Z,2.85
2023-03-15T04:13:21.529Z,2.84
2023-03-15T04:15:48.750Z,2.76
2023-03-15T04:18:15.719Z,2.86
2023-03-15T04:20:49.457Z,2.86
2023-03-15T04:23:19.304Z,2.81
2023-03-15T04:25:49.143Z,2.85
2023-03-15T04:28:16.048Z,2.66
2023-03-15T04:30:43.350Z,2.83
2023-03-15T04:33:11.081Z,3.16
2023-03-15T04:35:39.572Z,2.97
2023-03-15T04:38:06.863Z,3.00
2023-03-15T04:40:35.344Z,3.04
2023-03-15T04:43:04.065Z,3.06
2023-03-15T04:45:31.907Z,2.85
2023-03-15T04:47:58.930Z,2.97
2023-03-15T04:50:25.863Z,3.13
2023-03-15T04:52:52.610Z,3.11
2023-03-15T04:55:19.540Z,3.12
2023-03-15T04:57:46.192Z,3.17
2023-03-15T05:00:14.404Z,3.16
2023-03-15T05:02:42.144Z,3.18
2023-03-15T05:05:09.489Z,3.21
2023-03-15T05:07:36.658Z,3.22
2023-03-15T05:10:04.608Z,3.23
2023-03-15T05:12:31.690Z,3.22
2023-03-15T05:14:58.365Z,3.30
2023-03-15T05:17:25.047Z,3.28
2023-03-15T05:19:52.050Z,3.21
2023-03-15T05:22:19.352Z,3.28
2023-03-15T05:24:45.932Z,3.27
2023-03-15T05:27:13.804Z,3.26
2023-03-15T05:29:40.403Z,3.27
2023-03-15T05:32:07.368Z,3.30
2023-03-15T05:34:34.033Z,3.39
2023-03-15T05:37:00.864Z,3.39
2023-03-15T05:39:27.577Z,3.42
2023-03-15T05:41:54.202Z,3.18
2023-03-15T05:44:20.933Z,3.14
2023-03-15T05:46:47.589Z,3.12
2023-03-15T05:49:14.224Z,3.06
2023-03-15T05:51:40.876Z,3.00
2023-03-15T05:54:07.505Z,2.98
2023-03-15T05:56:34.138Z,2.87
2023-03-15T05:59:03.109Z,2.80
2023-03-15T06:01:29.688Z,2.87
2023-03-15T06:03:56.433Z,2.83
2023-03-15T06:06:23.054Z,2.84
2023-03-15T06:08:49.643Z,2.72
2023-03-15T06:11:16.189Z,2.83
2023-03-15T06:13:43.057Z,2.72
2023-03-15T06:16:09.630Z,2.77
2023-03-15T06:18:36.227Z,2.82
2023-03-15T06:21:02.830Z,2.98
2023-03-15T06:23:29.421Z,2.82
2023-03-15T06:25:56.096Z,2.73
2023-03-15T06:28:22.735Z,2.77
2023-03-15T06:30:49.413Z,2.76
2023-03-15T06:33:16.970Z,2.82
2023-03-15T06:35:43.832Z,2.88
2023-03-15T06:38:12.608Z,2.92
2023-03-15T06:40:39.641Z,2.86
2023-03-15T06:43:06.941Z,2.91
2023-03-15T06:45:34.394Z,2.86
2023-03-15T06:48:01.078Z,2.83
2023-03-15T06:50:34.452Z,2.86
2023-03-15T06:53:11.105Z,2.81
2023-03-15T06:55:37.932Z,2.88
2023-03-15T06:58:04.592Z,2.72
2023-03-15T07:00:31.288Z,2.77
2023-03-15T07:02:58.616Z,2.86
2023-03-15T07:05:25.344Z,2.93
2023-03-15T07:07:51.884Z,2.94
2023-03-15T07:10:18.674Z,2.86
2023-03-15T07:12:45.403Z,3.03
2023-03-15T07:15:12.307Z,3.04
2023-03-15T07:17:39.179Z,3.04
2023-03-15T07:20:07.319Z,3.08
2023-03-15T07:25:07.794Z,3.20
2023-03-15T07:27:34.675Z,3.21
2023-03-15T07:30:01.691Z,3.25
2023-03-15T07:32:28.489Z,3.23
2023-03-15T07:34:58.414Z,3.23
2023-03-15T07:37:25.475Z,3.33
2023-03-15T07:39:52.248Z,3.18
2023-03-15T07:42:18.923Z,3.25
2023-03-15T07:44:45.571Z,3.19
2023-03-15T07:47:13.030Z,3.33
2023-03-15T07:49:39.617Z,3.25
2023-03-15T07:52:06.608Z,3.37
2023-03-15T07:54:34.581Z,3.39
2023-03-15T07:57:01.550Z,3.36
2023-03-15T07:59:28.428Z,3.35
2023-03-15T08:01:56.022Z,3.49
2023-03-15T08:04:23.103Z,3.57
2023-03-15T08:06:49.872Z,3.67
2023-03-15T08:09:16.752Z,3.60
2023-03-15T08:11:45.273Z,3.60
2023-03-15T08:14:12.825Z,3.54
2023-03-15T08:16:39.694Z,3.54
2023-03-15T08:19:06.643Z,3.73
2023-03-15T08:21:33.953Z,3.65
2023-03-15T08:24:01.033Z,3.73
2023-03-15T08:26:28.402Z,3.71
2023-03-15T08:28:56.078Z,3.68
2023-03-15T08:31:22.878Z,3.71
2023-03-15T08:33:49.761Z,3.72
2023-03-15T08:36:16.602Z,3.83
2023-03-15T08:38:43.271Z,3.89
2023-03-15T08:41:10.702Z,3.94
2023-03-15T08:43:38.651Z,3.87
2023-03-15T08:46:05.634Z,3.75
2023-03-15T08:48:32.755Z,3.77
2023-03-15T08:51:04.429Z,3.46
2023-03-15T08:53:31.491Z,3.36
2023-03-15T08:55:58.527Z,3.47
2023-03-15T08:58:28.839Z,3.68
2023-03-15T09:00:55.909Z,3.83
2023-03-15T09:03:23.312Z,3.91
2023-03-15T09:05:50.040Z,4.03
2023-03-15T09:08:21.248Z,4.05
2023-03-15T09:10:48.377Z,4.14
2023-03-15T09:13:15.387Z,4.27
2023-03-15T09:15:42.510Z,4.21
2023-03-15T09:18:10.101Z,4.14
2023-03-15T09:20:36.845Z,4.18
2023-03-15T09:23:03.621Z,4.26
2023-03-15T09:25:30.936Z,4.18
2023-03-15T09:27:57.509Z,4.17
2023-03-15T09:30:24.573Z,4.22
2023-03-15T09:32:51.748Z,4.24
2023-03-15T09:35:20.551Z,4.19
2023-03-15T09:37:48.333Z,4.27
2023-03-15T09:40:47.574Z,4.24
2023-03-15T09:44:04.755Z,4.29
2023-03-15T09:46:34.382Z,4.50
2023-03-15T09:49:10.206Z,4.53
2023-03-15T09:51:55.625Z,4.49
2023-03-15T09:54:29.572Z,4.57
2023-03-15T09:57:04.513Z,4.82
2023-03-15T09:59:42.892Z,5.02
2023-03-15T10:02:24.062Z,5.26
2023-03-15T10:04:58.364Z,5.49
2023-03-15T10:07:25.365Z,5.62
2023-03-15T10:09:52.038Z,5.71
2023-03-15T10:12:29.345Z,6.00
2023-03-15T10:15:18.326Z,6.11
2023-03-15T10:18:12.009Z,6.01
2023-03-15T10:20:46.443Z,6.25
2023-03-15T10:23:22.841Z,6.02
2023-03-15T10:25:51.429Z,6.17
2023-03-15T10:28:34.812Z,6.18
2023-03-15T10:31:21.520Z,6.04
2023-03-15T10:33:53.758Z,6.21
2023-03-15T10:36:24.762Z,6.25
2023-03-15T10:38:51.765Z,6.18
2023-03-15T10:41:39.337Z,6.24
2023-03-15T10:44:10.721Z,6.11
2023-03-15T10:46:38.086Z,6.26
2023-03-15T10:49:17.030Z,6.42
2023-03-15T10:51:48.503Z,6.33
2023-03-15T10:54:20.671Z,6.01
2023-03-15T10:57:03.342Z,5.88
2023-03-15T10:59:32.395Z,5.56
2023-03-15T11:02:20.803Z,5.42
2023-03-15T11:05:09.494Z,5.45
2023-03-15T11:07:39.878Z,5.43
2023-03-15T11:10:08.469Z,5.43
2023-03-15T11:12:35.399Z,5.45
2023-03-15T11:15:15.840Z,5.49
2023-03-15T11:17:45.060Z,5.57
2023-03-15T11:20:32.390Z,5.54
2023-03-15T11:23:00.291Z,5.68
2023-03-15T11:25:31.727Z,5.73
2023-03-15T11:27:59.511Z,5.69
2023-03-15T11:30:29.873Z,5.99
2023-03-15T11:33:02.407Z,6.36
2023-03-15T11:35:33.293Z,6.58
2023-03-15T11:38:15.328Z,6.65
2023-03-15T11:40:48.331Z,6.74
2023-03-15T11:43:34.249Z,7.01
2023-03-15T11:46:05.388Z,7.20
2023-03-15T11:48:42.984Z,7.42
2023-03-15T11:51:11.681Z,7.43
2023-03-15T11:54:29.868Z,7.27
2023-03-15T11:56:58.427Z,7.11
2023-03-15T11:59:33.887Z,6.64
2023-03-15T12:02:28.817Z,6.33
2023-03-15T12:04:57.104Z,6.30
2023-03-15T12:07:30.095Z,6.17
2023-03-15T12:10:18.409Z,6.05
2023-03-15T12:12:46.821Z,6.02
2023-03-15T12:15:40.147Z,6.05
2023-03-15T12:18:15.787Z,6.11
2023-03-15T12:20:50.395Z,6.11
2023-03-15T12:23:18.457Z,6.23
2023-03-15T12:26:03.622Z,6.46
2023-03-15T12:28:36.639Z,6.69
2023-03-15T12:31:16.228Z,6.95
2023-03-15T12:34:03.969Z,6.76
2023-03-15T12:36:35.964Z,6.61
2023-03-15T12:39:23.067Z,6.73
2023-03-15T12:41:51.469Z,6.64
2023-03-15T12:44:51.623Z,6.44
2023-03-15T12:47:19.072Z,6.57
2023-03-15T12:49:46.365Z,6.60
2023-03-15T12:52:16.882Z,6.74
2023-03-15T12:55:13.432Z,6.94
2023-03-15T12:57:47.156Z,6.97
2023-03-15T13:00:21.717Z,7.17
2023-03-15T13:03:00.911Z,6.94
2023-03-15T13:05:39.471Z,6.96
2023-03-15T13:08:19.528Z,6.89
2023-03-15T13:11:05.015Z,7.01
2023-03-15T13:14:08.390Z,7.22
2023-03-15T13:16:43.795Z,7.34
2023-03-15T13:19:17.645Z,7.50
2023-03-15T13:22:11.806Z,7.61
2023-03-15T13:24:46.972Z,7.72
2023-03-15T13:27:39.068Z,7.67
2023-03-15T13:30:31.855Z,7.53
2023-03-15T13:33:20.392Z,7.58
2023-03-15T13:36:01.681Z,7.33
2023-03-15T13:38:40.429Z,7.35
2023-03-15T13:41:23.133Z,7.28
2023-03-15T13:43:53.503Z,7.07
2023-03-15T13:46:23.427Z,7.25
2023-03-15T13:48:53.607Z,7.48
2023-03-15T13:51:32.324Z,7.81
2023-03-15T13:54:07.832Z,7.96
2023-03-15T13:57:01.742Z,8.13
2023-03-15T13:59:33.685Z,8.23
2023-03-15T14:02:02.835Z,8.32
2023-03-15T14:04:31.747Z,8.45
2023-03-15T14:07:25.904Z,8.10
2023-03-15T14:10:29.616Z,7.82
2023-03-15T14:12:58.337Z,7.67
2023-03-15T14:15:36.669Z,7.34
2023-03-15T14:18:15.167Z,7.50
2023-03-15T14:20:46.375Z,7.29
2023-03-15T14:23:18.356Z,7.61
2023-03-15T14:25:52.262Z,7.40
2023-03-15T14:28:19.468Z,7.73
2023-03-15T14:30:54.128Z,7.88
2023-03-15T14:33:38.511Z,7.97
2023-03-15T14:36:10.026Z,8.05
2023-03-15T14:38:38.836Z,7.98
2023-03-15T14:41:19.956Z,7.91
2023-03-15T14:43:46.654Z,7.96
2023-03-15T14:46:13.348Z,8.05
2023-03-15T14:48:40.204Z,7.69
2023-03-15T14:51:07.075Z,7.80
2023-03-15T14:53:37.662Z,7.44
2023-03-15T14:56:05.394Z,7.08
2023-03-15T14:58:32.850Z,6.97
2023-03-15T15:00:59.706Z,7.17
2023-03-15T15:03:34.083Z,7.17
2023-03-15T15:06:23.081Z,7.07
2023-03-15T15:08:52.599Z,7.00
2023-03-15T15:11:19.296Z,6.96
2023-03-15T15:13:45.930Z,6.99
2023-03-15T15:16:12.638Z,6.93
2023-03-15T15:18:39.354Z,6.83
2023-03-15T15:21:22.552Z,6.74
2023-03-15T15:23:58.295Z,6.65
2023-03-15T15:26:27.851Z,6.52
2023-03-15T15:28:54.750Z,6.62
2023-03-15T15:31:23.341Z,6.61
2023-03-15T15:33:51.147Z,6.56
2023-03-15T15:36:27.216Z,6.53
2023-03-15T15:38:54.119Z,6.55
2023-03-15T15:41:26.262Z,6.61
2023-03-15T15:43:53.296Z,6.56
2023-03-15T15:46:20.255Z,6.74
2023-03-15T15:48:46.979Z,6.76
2023-03-15T15:51:28.524Z,6.73
2023-03-15T15:53:58.032Z,6.81
2023-03-15T15:56:31.270Z,6.76
2023-03-15T15:58:58.638Z,6.73
2023-03-15T16:01:25.665Z,6.71
2023-03-15T16:03:52.679Z,6.76
2023-03-15T16:06:21.527Z,6.72
2023-03-15T16:08:50.930Z,6.68
2023-03-15T16:11:17.911Z,6.75
2023-03-15T16:13:46.087Z,6.68
2023-03-15T16:16:14.996Z,6.69
2023-03-15T16:18:42.968Z,6.78
2023-03-15T16:21:18.862Z,6.76
2023-03-15T16:23:48.283Z,6.89
2023-03-15T16:26:16.375Z,6.97
2023-03-15T16:28:44.417Z,6.65
2023-03-15T16:31:12.818Z,6.51
2023-03-15T16:33:39.848Z,6.75
2023-03-15T16:36:06.901Z,6.79
2023-03-15T16:38:33.679Z,6.77
2023-03-15T16:41:01.145Z,6.71
2023-03-15T16:43:28.941Z,6.65
2023-03-15T16:45:55.756Z,6.67
2023-03-15T16:48:22.408Z,6.26
2023-03-15T16:50:49.153Z,5.87
2023-03-15T16:53:15.869Z,5.74
2023-03-15T16:55:42.549Z,5.63
2023-03-15T16:58:17.832Z,5.62
2023-03-15T17:00:47.102Z,5.66
2023-03-15T17:03:15.176Z,5.53
2023-03-15T17:05:43.954Z,5.41
2023-03-15T17:08:12.931Z,5.48
2023-03-15T17:10:40.754Z,5.59
2023-03-15T17:13:07.873Z,5.50
2023-03-15T17:15:34.523Z,5.52
2023-03-15T17:18:02.899Z,5.51
2023-03-15T17:20:29.728Z,5.37
2023-03-15T17:23:04.105Z,5.39
2023-03-15T17:25:31.503Z,5.42
2023-03-15T17:27:58.176Z,5.52
2023-03-15T17:30:27.864Z,5.48
2023-03-15T17:32:55.013Z,5.41
2023-03-15T17:35:23.793Z,5.32
2023-03-15T17:37:50.871Z,5.29
2023-03-15T17:40:21.590Z,5.21
2023-03-15T17:42:49.229Z,5.26
2023-03-15T17:45:33.418Z,5.32
2023-03-15T17:48:00.817Z,4.91
2023-03-15T17:50:30.199Z,4.86
2023-03-15T17:52:58.947Z,4.96
2023-03-15T17:55:27.054Z,4.74
2023-03-15T17:57:55.364Z,4.85
2023-03-15T18:00:23.400Z,4.76
2023-03-15T18:02:55.559Z,4.62
2023-03-15T18:05:27.581Z,4.61
2023-03-15T18:07:59.310Z,4.60
2023-03-15T18:10:32.023Z,4.53
2023-03-15T18:12:58.787Z,4.44
2023-03-15T18:15:25.547Z,4.16
2023-03-15T18:17:52.236Z,4.26
2023-03-15T18:20:22.292Z,4.13
2023-03-15T18:22:49.006Z,4.05
2023-03-15T18:25:24.859Z,4.12
2023-03-15T18:27:51.805Z,3.94
2023-03-15T18:30:21.452Z,3.95
2023-03-15T18:32:49.141Z,3.81
2023-03-15T18:35:19.127Z,4.00
2023-03-15T18:37:46.208Z,3.83
2023-03-15T18:40:15.118Z,3.37
2023-03-15T18:42:42.990Z,3.31
2023-03-15T18:45:25.494Z,3.34
2023-03-15T18:47:54.764Z,3.41
2023-03-15T18:50:23.383Z,3.28
2023-03-15T18:52:50.471Z,3.04
2023-03-15T18:55:18.758Z,2.90
2023-03-15T18:57:47.713Z,2.94
2023-03-15T19:00:26.689Z,2.95
2023-03-15T19:02:55.145Z,2.95
2023-03-15T19:05:22.304Z,3.10
2023-03-15T19:07:49.014Z,3.13
2023-03-15T19:10:19.385Z,2.86
2023-03-15T19:12:47.220Z,2.85
2023-03-15T19:15:17.673Z,2.85
2023-03-15T19:17:46.093Z,2.81
2023-03-15T19:20:22.867Z,2.74
2023-03-15T19:22:52.108Z,2.80
2023-03-15T19:25:19.996Z,2.81
2023-03-15T19:27:46.916Z,2.67
2023-03-15T19:30:18.274Z,2.66
2023-03-15T19:32:46.978Z,2.56
2023-03-15T19:35:13.961Z,2.64
2023-03-15T19:37:45.804Z,2.66
2023-03-15T19:40:16.310Z,2.49
2023-03-15T19:42:48.088Z,2.48
2023-03-15T19:45:15.992Z,2.36
2023-03-15T19:47:42.638Z,2.35
2023-03-15T19:50:11.222Z,2.30
2023-03-15T19:52:42.467Z,2.20
2023-03-15T19:55:09.756Z,1.99
2023-03-15T19:57:36.733Z,1.94
2023-03-15T20:00:04.133Z,2.02
2023-03-15T20:02:33.090Z,2.01
2023-03-15T20:05:00.599Z,2.06
2023-03-15T20:07:27.322Z,2.18
2023-03-15T20:09:54.002Z,2.08
2023-03-15T20:12:25.223Z,1.95
2023-03-15T20:14:51.932Z,1.83
2023-03-15T20:17:23.665Z,1.84
2023-03-15T20:19:50.392Z,1.60
2023-03-15T20:22:18.579Z,1.67
2023-03-15T20:24:46.058Z,1.71
2023-03-15T20:27:13.473Z,1.48
2023-03-15T20:34:44.127Z,1.28
2023-03-15T20:37:13.643Z,1.43
2023-03-15T20:39:43.909Z,1.54
2023-03-15T20:42:10.883Z,1.56
2023-03-15T20:44:37.662Z,1.54
2023-03-15T20:47:09.368Z,1.55
2023-03-15T20:49:36.386Z,1.61
2023-03-15T20:52:03.799Z,1.56
2023-03-15T20:54:36.276Z,1.46
2023-03-15T20:57:04.895Z,1.50
2023-03-15T20:59:32.323Z,1.58
2023-03-15T21:01:59.027Z,1.58
2023-03-15T21:04:28.814Z,1.49
2023-03-15T21:06:57.116Z,1.49
2023-03-15T21:09:24.022Z,1.46
2023-03-15T21:11:50.826Z,1.40
2023-03-15T21:14:17.571Z,1.32
2023-03-15T21:16:44.225Z,1.11
2023-03-15T21:19:11.116Z,1.18
2023-03-15T21:21:38.076Z,1.02
2023-03-15T21:24:06.666Z,1.10
2023-03-15T21:26:33.408Z,1.07
2023-03-15T21:29:00.218Z,0.98
2023-03-15T21:31:27.010Z,0.89
2023-03-15T21:33:53.640Z,0.95
2023-03-15T21:36:20.647Z,1.00
2023-03-15T21:38:48.464Z,0.99
2023-03-15T21:41:15.197Z,1.00
2023-03-15T21:43:41.877Z,1.06
2023-03-15T21:46:12.165Z,1.01
2023-03-15T21:48:39.017Z,0.89
2023-03-15T21:51:06.959Z,0.85
2023-03-15T21:53:34.315Z,0.89
2023-03-15T21:56:01.663Z,0.88
2023-03-15T21:58:29.460Z,0.72
2023-03-15T22:01:04.807Z,0.57
2023-03-15T22:03:32.855Z,0.58
2023-03-15T22:05:59.550Z,0.70
2023-03-15T22:08:26.743Z,0.84
2023-03-15T22:10:54.567Z,0.69
2023-03-15T22:13:21.705Z,0.80
2023-03-15T22:15:48.489Z,0.61
2023-03-15T22:18:16.075Z,0.59
2023-03-15T22:20:42.847Z,0.66
2023-03-15T22:23:09.508Z,0.67
2023-03-15T22:25:39.299Z,0.54
2023-03-15T22:28:06.555Z,0.38
2023-03-15T22:30:33.325Z,0.26
2023-03-15T22:33:00.212Z,0.24
2023-03-15T22:35:26.976Z,0.35
2023-03-15T22:37:57.254Z,0.50
2023-03-15T22:40:25.783Z,0.41
2023-03-15T22:42:53.015Z,0.34
2023-03-15T22:45:21.070Z,0.33
2023-03-15T22:47:49.236Z,0.21
2023-03-15T22:50:16.739Z,0.25
2023-03-15T22:52:44.140Z,0.22
2023-03-15T22:55:11.880Z,0.28
2023-03-15T22:57:38.833Z,0.29
2023-03-15T23:00:14.090Z,0.31
2023-03-15T23:02:42.058Z,0.20
2023-03-15T23:05:09.335Z,0.14
2023-03-15T23:07:36.165Z,0.12
2023-03-15T23:10:03.891Z,0.11
2023-03-15T23:12:36.156Z,0.11
2023-03-15T23:15:04.510Z,0.13
2023-03-15T23:17:31.629Z,0.14
2023-03-15T23:19:58.342Z,0.12
2023-03-15T23:22:25.166Z,0.25
2023-03-15T23:24:51.944Z,0.25
2023-03-15T23:27:18.707Z,0.09
2023-03-15T23:29:54.152Z,0.06
2023-03-15T23:32:21.746Z,-0.13
2023-03-15T23:34:48.739Z,0.07
2023-03-15T23:37:15.553Z,0.15
2023-03-15T23:39:43.083Z,0.04
2023-03-15T23:42:10.654Z,0.02
2023-03-15T23:44:37.891Z,-0.17
2023-03-15T23:47:05.907Z,-0.22
2023-03-15T23:49:33.159Z,-0.09
2023-03-15T23:52:06.045Z,-0.07
2023-03-15T23:54:41.397Z,-0.30
2023-03-15T23:57:10.005Z,-0.28
2023-03-15T23:59:37.300Z,-0.22
